createdAt,value
2023-04-30T00:00:53.380Z,0.00
2023-04-30T00:01:53.416Z,0.00
2023-04-30T00:02:53.352Z,0.00
2023-04-30T00:03:53.441Z,0.00
2023-04-30T00:04:53.307Z,0.00
2023-04-30T00:05:53.425Z,0.00
2023-04-30T00:06:53.314Z,0.00
2023-04-30T00:07:53.312Z,0.00
2023-04-30T00:08:53.265Z,0.00
2023-04-30T00:09:58.067Z,0.00
2023-04-30T00:10:53.985Z,0.00
2023-04-30T00:11:53.289Z,0.00
2023-04-30T00:12:53.228Z,0.00
2023-04-30T00:13:56.425Z,0.00
2023-04-30T00:14:53.205Z,0.00
2023-04-30T00:15:53.263Z,0.00
2023-04-30T00:16:57.897Z,0.00
2023-04-30T00:17:55.319Z,0.00
2023-04-30T00:18:53.189Z,0.00
2023-04-30T00:19:53.368Z,0.00
2023-04-30T00:20:56.477Z,0.00
2023-04-30T00:21:53.154Z,0.00
2023-04-30T00:22:54.192Z,0.00
2023-04-30T00:23:53.182Z,0.00
2023-04-30T00:24:53.106Z,0.00
2023-04-30T00:25:53.104Z,0.00
2023-04-30T00:26:53.063Z,0.00
2023-04-30T00:27:53.108Z,0.00
2023-04-30T00:28:53.069Z,0.00
2023-04-30T00:29:53.248Z,0.00
2023-04-30T00:30:53.024Z,0.00
2023-04-30T00:31:53.179Z,0.00
2023-04-30T00:32:53.048Z,0.00
2023-04-30T00:33:53.030Z,0.00
2023-04-30T00:34:53.851Z,0.00
2023-04-30T00:35:52.995Z,0.00
2023-04-30T00:36:53.023Z,0.00
2023-04-30T00:37:52.971Z,0.00
2023-04-30T00:38:52.940Z,0.00
2023-04-30T00:39:53.198Z,0.00
2023-04-30T00:40:53.491Z,0.00
2023-04-30T00:41:52.953Z,0.00
2023-04-30T00:42:52.903Z,0.00
2023-04-30T00:43:52.896Z,0.00
2023-04-30T00:44:54.256Z,0.00
2023-04-30T00:45:52.996Z,0.00
2023-04-30T00:46:52.830Z,0.00
2023-04-30T00:47:52.900Z,0.00
2023-04-30T00:48:52.812Z,0.00
2023-04-30T00:49:52.986Z,0.00
2023-04-30T00:50:52.802Z,0.00
2023-04-30T00:51:52.824Z,0.00
2023-04-30T00:52:53.696Z,0.00
2023-04-30T00:53:54.258Z,0.00
2023-04-30T00:54:52.775Z,0.00
2023-04-30T00:55:53.525Z,0.00
2023-04-30T00:56:52.765Z,0.00
2023-04-30T00:57:52.759Z,0.00
2023-04-30T00:58:52.731Z,0.00
2023-04-30T00:59:53.905Z,0.00
2023-04-30T01:00:54.334Z,0.00
2023-04-30T01:01:52.688Z,0.00
2023-04-30T01:02:52.732Z,0.00
2023-04-30T01:03:53.534Z,0.00
2023-04-30T01:04:52.649Z,0.00
2023-04-30T01:05:53.557Z,0.00
2023-04-30T01:06:55.032Z,0.00
2023-04-30T01:07:53.541Z,0.00
2023-04-30T01:08:53.418Z,0.00
2023-04-30T01:09:53.429Z,0.00
2023-04-30T01:10:52.567Z,0.00
2023-04-30T01:11:54.534Z,0.00
2023-04-30T01:12:52.569Z,0.00
2023-04-30T01:13:55.656Z,0.00
2023-04-30T01:14:53.237Z,0.00
2023-04-30T01:15:52.567Z,0.00
2023-04-30T01:16:54.229Z,0.00
2023-04-30T01:17:52.748Z,0.00
2023-04-30T01:18:53.300Z,0.00
2023-04-30T01:19:52.728Z,0.00
2023-04-30T01:20:53.226Z,0.00
2023-04-30T01:21:52.449Z,0.00
2023-04-30T01:22:52.454Z,0.00
2023-04-30T01:23:52.550Z,0.00
2023-04-30T01:24:53.058Z,0.00
2023-04-30T01:25:52.415Z,0.00
2023-04-30T01:26:53.039Z,0.00
2023-04-30T01:27:52.402Z,0.00
2023-04-30T01:28:53.733Z,0.00
2023-04-30T01:29:52.696Z,0.00
2023-04-30T01:30:53.164Z,0.00
2023-04-30T01:31:52.425Z,0.00
2023-04-30T01:32:52.371Z,0.00
2023-04-30T01:33:54.193Z,0.00
2023-04-30T01:34:52.310Z,0.00
2023-04-30T01:35:53.010Z,0.00
2023-04-30T01:36:52.283Z,0.00
2023-04-30T01:37:52.303Z,0.00
2023-04-30T01:38:52.248Z,0.00
2023-04-30T01:39:52.440Z,0.00
2023-04-30T01:40:53.039Z,0.00
2023-04-30T01:41:54.234Z,0.00
2023-04-30T01:42:52.217Z,0.00
2023-04-30T01:43:52.221Z,0.00
2023-04-30T01:44:52.180Z,0.00
2023-04-30T01:45:52.763Z,0.00
2023-04-30T01:46:52.168Z,0.00
2023-04-30T01:47:54.264Z,0.00
2023-04-30T01:48:52.210Z,0.00
2023-04-30T01:49:52.527Z,0.00
2023-04-30T01:50:52.136Z,0.00
2023-04-30T01:51:52.516Z,0.00
2023-04-30T01:52:52.083Z,0.00
2023-04-30T01:53:52.134Z,0.00
2023-04-30T01:54:52.067Z,0.00
2023-04-30T01:55:56.610Z,0.00
2023-04-30T01:56:52.055Z,0.00
2023-04-30T01:57:52.080Z,0.00
2023-04-30T01:58:55.190Z,0.00
2023-04-30T01:59:52.522Z,0.00
2023-04-30T02:00:52.065Z,0.00
2023-04-30T02:01:52.051Z,0.00
2023-04-30T02:02:52.672Z,0.00
2023-04-30T02:03:52.627Z,0.00
2023-04-30T02:04:53.690Z,0.00
2023-04-30T02:05:52.693Z,0.00
2023-04-30T02:06:52.030Z,0.00
2023-04-30T02:07:51.969Z,0.00
2023-04-30T02:08:52.528Z,0.00
2023-04-30T02:09:52.824Z,0.00
2023-04-30T02:10:53.682Z,0.00
2023-04-30T02:11:52.075Z,0.00
2023-04-30T02:12:53.228Z,0.00
2023-04-30T02:50:49.331Z,0.00
2023-04-30T02:51:49.781Z,0.00
2023-04-30T02:52:49.880Z,0.00
2023-04-30T02:53:49.867Z,0.00
2023-04-30T02:54:49.564Z,0.00
2023-04-30T02:55:49.037Z,0.00
2023-04-30T02:56:49.038Z,0.00
2023-04-30T02:57:48.971Z,0.00
2023-04-30T02:58:49.903Z,0.00
2023-04-30T02:59:51.062Z,0.00
2023-04-30T03:00:51.813Z,0.00
2023-04-30T03:01:52.481Z,0.00
2023-04-30T11:41:46.871Z,73.12
2023-04-30T11:42:47.721Z,73.12
2023-04-30T11:43:46.832Z,73.12
2023-04-30T11:44:47.910Z,73.12
2023-04-30T11:45:47.666Z,73.12
2023-04-30T11:46:46.839Z,90.00
2023-04-30T11:47:49.618Z,84.38
2023-04-30T11:48:48.838Z,84.38
2023-04-30T11:49:48.460Z,84.38
2023-04-30T11:53:37.711Z,73.12
2023-04-30T11:54:37.490Z,151.88
2023-04-30T11:55:37.453Z,168.75
2023-04-30T11:56:38.278Z,146.25
2023-04-30T11:57:37.436Z,146.25
2023-04-30T11:58:39.984Z,118.12
2023-04-30T11:59:37.438Z,196.88
2023-04-30T12:00:38.729Z,247.50
2023-04-30T12:01:38.270Z,230.62
2023-04-30T12:02:39.379Z,247.50
2023-04-30T12:03:41.652Z,123.75
2023-04-30T12:04:38.305Z,101.25
2023-04-30T12:05:39.616Z,90.00
2023-04-30T12:06:37.302Z,84.38
2023-04-30T12:07:38.813Z,123.75
2023-04-30T12:08:37.276Z,101.25
2023-04-30T12:09:38.013Z,90.00
2023-04-30T12:10:37.266Z,95.62
2023-04-30T12:11:56.921Z,73.12
2023-04-30T12:12:37.268Z,61.88
2023-04-30T12:13:37.937Z,61.88
2023-04-30T12:14:37.215Z,67.50
2023-04-30T12:15:38.918Z,73.12
2023-04-30T12:16:37.252Z,61.88
2023-04-30T12:17:37.249Z,56.25
2023-04-30T12:18:37.173Z,56.25
2023-04-30T12:19:37.183Z,61.88
2023-04-30T12:20:37.936Z,208.12
2023-04-30T12:21:37.971Z,208.12
2023-04-30T12:22:38.068Z,196.88
2023-04-30T12:23:37.160Z,90.00
2023-04-30T12:24:38.106Z,78.75
2023-04-30T12:25:38.821Z,118.12
2023-04-30T12:26:37.081Z,135.00
2023-04-30T12:27:37.100Z,112.50
2023-04-30T12:28:37.051Z,78.75
2023-04-30T12:29:38.111Z,84.38
2023-04-30T12:30:37.046Z,84.38
2023-04-30T12:31:37.067Z,84.38
2023-04-30T12:32:39.494Z,84.38
2023-04-30T12:33:37.910Z,84.38
2023-04-30T12:34:36.982Z,78.75
2023-04-30T12:35:37.035Z,90.00
2023-04-30T12:36:36.975Z,95.62
2023-04-30T12:37:36.994Z,101.25
2023-04-30T12:38:36.935Z,106.88
2023-04-30T12:39:36.958Z,106.88
2023-04-30T12:40:36.923Z,90.00
2023-04-30T12:41:38.605Z,84.38
2023-04-30T12:42:37.560Z,90.00
2023-04-30T12:43:36.918Z,118.12
2023-04-30T12:44:36.858Z,123.75
2023-04-30T12:45:36.890Z,151.88
2023-04-30T12:46:36.873Z,101.25
2023-04-30T12:47:38.464Z,101.25
2023-04-30T12:48:36.834Z,241.88
2023-04-30T12:49:36.843Z,135.00
2023-04-30T12:50:37.591Z,146.25
2023-04-30T12:51:36.838Z,101.25
2023-04-30T12:52:36.788Z,95.62
2023-04-30T12:53:36.825Z,123.75
2023-04-30T12:54:37.579Z,106.88
2023-04-30T12:55:36.799Z,90.00
2023-04-30T12:56:36.758Z,84.38
2023-04-30T12:57:36.751Z,84.38
2023-04-30T12:58:38.993Z,118.12
2023-04-30T12:59:36.748Z,135.00
2023-04-30T13:00:36.703Z,90.00
2023-04-30T13:01:36.831Z,84.38
2023-04-30T13:02:36.736Z,78.75
2023-04-30T13:03:37.656Z,90.00
2023-04-30T13:04:36.660Z,146.25
2023-04-30T13:05:36.660Z,112.50
2023-04-30T13:06:36.638Z,101.25
2023-04-30T13:07:36.649Z,90.00
2023-04-30T13:08:46.291Z,84.38
2023-04-30T13:09:36.607Z,84.38
2023-04-30T13:10:36.606Z,123.75
2023-04-30T13:11:36.626Z,258.75
2023-04-30T13:12:36.564Z,264.38
2023-04-30T13:13:37.453Z,264.38
2023-04-30T13:14:36.561Z,264.38
2023-04-30T13:15:36.614Z,241.88
2023-04-30T13:16:38.666Z,219.38
2023-04-30T13:17:37.223Z,264.38
2023-04-30T13:18:36.489Z,101.25
2023-04-30T13:19:36.502Z,101.25
2023-04-30T13:20:36.465Z,95.62
2023-04-30T13:21:36.494Z,118.12
2023-04-30T13:22:36.461Z,106.88
2023-04-30T13:23:48.662Z,106.88
2023-04-30T13:24:36.434Z,270.00
2023-04-30T13:25:37.143Z,219.38
2023-04-30T13:26:37.763Z,191.25
2023-04-30T13:27:36.421Z,225.00
2023-04-30T13:28:36.371Z,236.25
2023-04-30T13:29:36.442Z,157.50
2023-04-30T13:30:36.382Z,281.25
2023-04-30T13:31:37.121Z,281.25
2023-04-30T13:32:36.343Z,275.62
2023-04-30T13:33:36.429Z,241.88
2023-04-30T13:34:37.059Z,241.88
2023-04-30T13:35:36.355Z,140.62
2023-04-30T13:36:36.295Z,241.88
2023-04-30T13:37:37.160Z,264.38
2023-04-30T13:38:36.260Z,112.50
2023-04-30T13:39:36.292Z,264.38
2023-04-30T13:40:36.259Z,213.75
2023-04-30T13:41:37.822Z,219.38
2023-04-30T13:42:36.258Z,95.62
2023-04-30T13:43:36.229Z,95.62
2023-04-30T13:44:36.208Z,151.88
2023-04-30T13:45:36.229Z,258.75
2023-04-30T13:46:36.238Z,270.00
2023-04-30T13:47:36.945Z,163.12
2023-04-30T13:48:36.164Z,118.12
2023-04-30T13:49:36.175Z,241.88
2023-04-30T13:50:36.152Z,236.25
2023-04-30T13:51:36.161Z,213.75
2023-04-30T13:52:36.116Z,95.62
2023-04-30T13:53:36.314Z,90.00
2023-04-30T13:54:36.087Z,95.62
2023-04-30T13:55:36.119Z,129.38
2023-04-30T13:56:36.064Z,208.12
2023-04-30T13:57:39.785Z,118.12
2023-04-30T13:58:36.035Z,101.25
2023-04-30T13:59:37.978Z,90.00
2023-04-30T14:00:36.119Z,180.00
2023-04-30T14:01:36.612Z,275.62
2023-04-30T14:02:36.083Z,241.88
2023-04-30T14:03:36.079Z,219.38
2023-04-30T14:04:35.987Z,281.25
2023-04-30T14:05:35.980Z,275.62
2023-04-30T14:06:36.007Z,275.62
2023-04-30T14:07:35.960Z,281.25
2023-04-30T14:08:35.942Z,275.62
2023-04-30T14:09:36.630Z,270.00
2023-04-30T14:10:35.903Z,270.00
2023-04-30T14:11:35.931Z,157.50
2023-04-30T14:12:35.879Z,264.38
2023-04-30T14:13:36.631Z,219.38
2023-04-30T14:14:37.968Z,270.00
2023-04-30T14:15:35.899Z,95.62
2023-04-30T14:16:35.877Z,185.62
2023-04-30T14:17:52.242Z,258.75
2023-04-30T14:18:35.831Z,258.75
2023-04-30T14:19:35.841Z,258.75
2023-04-30T14:20:35.782Z,247.50
2023-04-30T14:21:35.811Z,275.62
2023-04-30T14:22:35.818Z,281.25
2023-04-30T14:23:35.801Z,163.12
2023-04-30T14:24:35.754Z,286.88
2023-04-30T14:25:35.754Z,286.88
2023-04-30T14:26:36.403Z,286.88
2023-04-30T14:27:36.613Z,286.88
2023-04-30T14:28:35.709Z,281.25
2023-04-30T14:29:35.745Z,281.25
2023-04-30T14:30:35.688Z,286.88
2023-04-30T14:31:35.709Z,286.88
2023-04-30T14:32:35.804Z,286.88
2023-04-30T14:33:36.296Z,286.88
2023-04-30T14:34:35.668Z,286.88
2023-04-30T14:35:36.302Z,281.25
2023-04-30T14:36:35.631Z,101.25
2023-04-30T14:37:35.604Z,78.75
2023-04-30T14:38:35.596Z,78.75
2023-04-30T14:39:35.602Z,78.75
2023-04-30T14:40:35.619Z,112.50
2023-04-30T14:41:35.565Z,174.38
2023-04-30T14:42:35.599Z,275.62
2023-04-30T14:43:35.546Z,247.50
2023-04-30T14:44:35.539Z,286.88
2023-04-30T14:45:35.575Z,196.88
2023-04-30T14:46:35.601Z,151.88
2023-04-30T14:47:35.531Z,270.00
2023-04-30T14:48:35.504Z,275.62
2023-04-30T14:49:35.463Z,247.50
2023-04-30T14:50:35.469Z,275.62
2023-04-30T14:51:35.462Z,95.62
2023-04-30T14:52:35.481Z,84.38
2023-04-30T14:53:35.441Z,264.38
2023-04-30T14:54:35.448Z,286.88
2023-04-30T14:55:35.391Z,191.25
2023-04-30T14:56:35.410Z,95.62
2023-04-30T14:57:35.400Z,281.25
2023-04-30T14:58:35.411Z,292.50
2023-04-30T14:59:36.430Z,292.50
2023-04-30T15:00:35.396Z,286.88
2023-04-30T15:01:35.395Z,292.50
2023-04-30T15:02:35.484Z,286.88
2023-04-30T15:03:36.078Z,286.88
2023-04-30T15:04:35.350Z,286.88
2023-04-30T15:05:35.331Z,286.88
2023-04-30T15:06:35.367Z,286.88
2023-04-30T15:07:35.299Z,286.88
2023-04-30T15:08:35.295Z,286.88
2023-04-30T15:09:35.265Z,286.88
2023-04-30T15:10:35.266Z,286.88
2023-04-30T15:11:35.259Z,286.88
2023-04-30T15:12:36.065Z,286.88
2023-04-30T15:13:35.238Z,286.88
2023-04-30T15:14:35.243Z,286.88
2023-04-30T15:15:35.921Z,286.88
2023-04-30T15:16:35.203Z,286.88
2023-04-30T15:17:35.890Z,281.25
2023-04-30T15:18:35.190Z,286.88
2023-04-30T15:19:36.884Z,286.88
2023-04-30T15:20:35.919Z,286.88
2023-04-30T15:21:37.380Z,286.88
2023-04-30T15:22:35.144Z,286.88
2023-04-30T15:23:35.134Z,286.88
2023-04-30T15:24:35.115Z,286.88
2023-04-30T15:25:36.548Z,286.88
2023-04-30T15:26:35.104Z,286.88
2023-04-30T15:27:35.108Z,286.88
2023-04-30T15:28:38.034Z,286.88
2023-04-30T15:29:35.043Z,286.88
2023-04-30T15:30:35.044Z,286.88
2023-04-30T15:31:35.054Z,286.88
2023-04-30T15:32:36.478Z,286.88
2023-04-30T15:33:34.977Z,286.88
2023-04-30T15:34:35.005Z,286.88
2023-04-30T15:35:34.975Z,286.88
2023-04-30T15:36:34.996Z,241.88
2023-04-30T15:37:35.765Z,275.62
2023-04-30T15:38:35.612Z,208.12
2023-04-30T15:39:34.926Z,230.62
2023-04-30T15:40:36.583Z,281.25
2023-04-30T15:41:35.004Z,281.25
2023-04-30T15:42:34.898Z,281.25
2023-04-30T15:43:34.870Z,123.75
2023-04-30T15:44:34.883Z,196.88
2023-04-30T15:45:35.634Z,219.38
2023-04-30T15:46:35.592Z,78.75
2023-04-30T15:47:35.528Z,101.25
2023-04-30T15:48:34.866Z,90.00
2023-04-30T15:49:35.669Z,84.38
2023-04-30T15:52:01.699Z,61.88
2023-04-30T15:53:25.714Z,67.50
2023-04-30T15:54:26.703Z,73.12
2023-04-30T15:55:27.341Z,78.75
2023-04-30T15:56:26.710Z,84.38
2023-04-30T15:57:26.664Z,78.75
2023-04-30T15:58:26.716Z,95.62
2023-04-30T15:59:27.576Z,286.88
2023-04-30T16:00:26.649Z,275.62
2023-04-30T16:01:28.286Z,213.75
2023-04-30T16:02:26.661Z,67.50
2023-04-30T16:03:26.768Z,61.88
2023-04-30T16:04:28.787Z,67.50
2023-04-30T16:05:26.611Z,135.00
2023-04-30T16:06:26.630Z,106.88
2023-04-30T16:07:28.371Z,90.00
2023-04-30T16:08:26.561Z,78.75
2023-04-30T16:09:26.538Z,90.00
2023-04-30T16:10:28.010Z,264.38
2023-04-30T16:11:27.474Z,275.62
2023-04-30T16:12:27.963Z,275.62
2023-04-30T16:13:26.501Z,270.00
2023-04-30T16:14:26.597Z,270.00
2023-04-30T16:15:26.478Z,90.00
2023-04-30T16:16:27.872Z,90.00
2023-04-30T16:17:26.456Z,146.25
2023-04-30T16:18:26.474Z,275.62
2023-04-30T16:19:26.448Z,275.62
2023-04-30T16:20:26.489Z,185.62
2023-04-30T16:21:26.412Z,163.12
2023-04-30T16:22:27.106Z,225.00
2023-04-30T16:23:26.386Z,151.88
2023-04-30T16:24:26.391Z,264.38
2023-04-30T16:25:26.350Z,129.38
2023-04-30T16:26:27.267Z,270.00
2023-04-30T16:27:26.384Z,275.62
2023-04-30T16:28:26.352Z,275.62
2023-04-30T16:29:26.315Z,264.38
2023-04-30T16:30:26.998Z,225.00
2023-04-30T16:31:26.495Z,247.50
2023-04-30T16:32:26.321Z,258.75
2023-04-30T16:33:26.286Z,253.12
2023-04-30T16:34:26.261Z,270.00
2023-04-30T16:35:26.984Z,275.62
2023-04-30T16:36:26.305Z,230.62
2023-04-30T16:37:26.936Z,281.25
2023-04-30T16:38:26.250Z,275.62
2023-04-30T16:39:26.706Z,270.00
2023-04-30T16:40:26.215Z,270.00
2023-04-30T16:41:26.873Z,275.62
2023-04-30T16:42:26.183Z,281.25
2023-04-30T16:43:26.149Z,264.38
2023-04-30T16:44:26.378Z,84.38
2023-04-30T16:45:26.150Z,112.50
2023-04-30T16:46:26.225Z,135.00
2023-04-30T16:47:26.225Z,61.88
2023-04-30T16:48:26.825Z,56.25
2023-04-30T16:49:26.066Z,61.88
2023-04-30T16:50:26.091Z,67.50
2023-04-30T16:51:26.108Z,73.12
2023-04-30T16:52:26.768Z,67.50
2023-04-30T16:53:26.019Z,67.50
2023-04-30T16:54:27.022Z,73.12
2023-04-30T16:55:26.040Z,78.75
2023-04-30T16:56:26.053Z,73.12
2023-04-30T16:57:26.083Z,67.50
2023-04-30T16:58:26.035Z,67.50
2023-04-30T16:59:25.979Z,67.50
2023-04-30T17:00:26.021Z,61.88
2023-04-30T17:01:25.996Z,61.88
2023-04-30T17:02:26.033Z,61.88
2023-04-30T17:03:26.067Z,61.88
2023-04-30T17:04:25.947Z,67.50
2023-04-30T17:05:25.909Z,67.50
2023-04-30T17:06:26.028Z,61.88
2023-04-30T17:07:25.903Z,61.88
2023-04-30T17:08:25.895Z,61.88
2023-04-30T17:09:26.096Z,56.25
2023-04-30T17:10:25.865Z,56.25
2023-04-30T17:11:25.835Z,61.88
2023-04-30T17:12:25.922Z,67.50
2023-04-30T17:13:25.826Z,67.50
2023-04-30T17:14:25.836Z,73.12
2023-04-30T17:15:25.828Z,78.75
2023-04-30T17:16:25.885Z,151.88
2023-04-30T17:17:26.501Z,247.50
2023-04-30T17:18:25.789Z,106.88
2023-04-30T17:19:25.753Z,118.12
2023-04-30T17:20:25.761Z,275.62
2023-04-30T17:21:25.762Z,258.75
2023-04-30T17:22:25.753Z,270.00
2023-04-30T17:23:25.736Z,264.38
2023-04-30T17:24:27.737Z,140.62
2023-04-30T17:25:27.719Z,270.00
2023-04-30T17:26:25.694Z,270.00
2023-04-30T17:27:30.109Z,146.25
2023-04-30T17:28:26.577Z,258.75
2023-04-30T17:29:25.631Z,230.62
2023-04-30T17:30:25.661Z,258.75
2023-04-30T17:31:25.650Z,258.75
2023-04-30T17:32:25.674Z,253.12
2023-04-30T17:33:25.604Z,253.12
2023-04-30T17:34:25.610Z,247.50
2023-04-30T17:35:25.585Z,157.50
2023-04-30T17:36:25.588Z,202.50
2023-04-30T17:37:25.568Z,241.88
2023-04-30T17:38:26.525Z,241.88
2023-04-30T17:39:25.550Z,236.25
2023-04-30T17:40:25.537Z,230.62
2023-04-30T17:41:25.536Z,225.00
2023-04-30T17:42:25.530Z,219.38
2023-04-30T17:43:25.483Z,219.38
2023-04-30T17:44:25.521Z,219.38
2023-04-30T17:45:25.483Z,225.00
2023-04-30T17:46:25.533Z,219.38
2023-04-30T17:47:26.283Z,213.75
2023-04-30T17:48:25.470Z,213.75
2023-04-30T17:49:25.449Z,213.75
2023-04-30T17:50:27.871Z,213.75
2023-04-30T17:51:25.444Z,208.12
2023-04-30T17:52:25.418Z,208.12
2023-04-30T17:53:25.401Z,202.50
2023-04-30T17:54:25.391Z,196.88
2023-04-30T17:55:25.364Z,196.88
2023-04-30T17:56:25.379Z,196.88
2023-04-30T17:57:25.418Z,196.88
2023-04-30T17:58:25.373Z,196.88
2023-04-30T17:59:25.337Z,196.88
2023-04-30T18:00:27.221Z,191.25
2023-04-30T18:01:25.339Z,191.25
2023-04-30T18:02:25.343Z,191.25
2023-04-30T18:03:25.349Z,185.62
2023-04-30T18:04:26.003Z,185.62
2023-04-30T18:05:25.264Z,185.62
2023-04-30T18:06:25.340Z,185.62
2023-04-30T18:07:25.225Z,191.25
2023-04-30T18:08:25.258Z,185.62
2023-04-30T18:09:25.245Z,185.62
2023-04-30T18:10:25.224Z,180.00
2023-04-30T18:11:25.182Z,174.38
2023-04-30T18:12:25.210Z,180.00
2023-04-30T18:13:25.169Z,67.50
2023-04-30T18:14:27.990Z,67.50
2023-04-30T18:15:25.358Z,61.88
2023-04-30T18:16:25.229Z,61.88
2023-04-30T18:17:25.206Z,67.50
2023-04-30T18:18:25.162Z,163.12
2023-04-30T18:19:26.022Z,101.25
2023-04-30T18:20:25.147Z,174.38
2023-04-30T18:21:26.031Z,174.38
2023-04-30T18:22:27.057Z,180.00
2023-04-30T18:23:25.089Z,180.00
2023-04-30T18:24:26.053Z,180.00
2023-04-30T18:25:25.044Z,180.00
2023-04-30T18:26:25.065Z,180.00
2023-04-30T18:27:25.563Z,180.00
2023-04-30T18:28:25.053Z,174.38
2023-04-30T18:29:24.987Z,168.75
2023-04-30T18:30:24.986Z,157.50
2023-04-30T18:31:25.008Z,157.50
2023-04-30T18:32:25.759Z,151.88
2023-04-30T18:33:26.735Z,151.88
2023-04-30T18:34:25.873Z,151.88
2023-04-30T18:35:24.903Z,151.88
2023-04-30T18:36:24.942Z,146.25
2023-04-30T18:37:24.895Z,146.25
2023-04-30T18:38:24.933Z,146.25
2023-04-30T18:39:25.020Z,129.38
2023-04-30T18:40:24.894Z,129.38
2023-04-30T18:41:24.844Z,123.75
2023-04-30T18:42:24.860Z,129.38
2023-04-30T18:43:24.840Z,67.50
2023-04-30T18:44:25.537Z,73.12
2023-04-30T18:45:24.901Z,123.75
2023-04-30T18:46:25.656Z,118.12
2023-04-30T18:47:24.840Z,118.12
2023-04-30T18:48:24.800Z,112.50
2023-04-30T18:49:24.773Z,106.88
2023-04-30T18:50:25.529Z,73.12
2023-04-30T18:51:24.787Z,106.88
2023-04-30T18:52:24.765Z,112.50
2023-04-30T18:53:24.719Z,112.50
2023-04-30T18:54:24.737Z,112.50
2023-04-30T18:55:24.876Z,112.50
2023-04-30T18:56:25.397Z,112.50
2023-04-30T18:57:25.055Z,112.50
2023-04-30T18:58:24.681Z,106.88
2023-04-30T18:59:25.329Z,106.88
2023-04-30T19:00:24.669Z,106.88
2023-04-30T19:01:25.282Z,106.88
2023-04-30T19:02:24.742Z,106.88
2023-04-30T19:03:24.840Z,106.88
2023-04-30T19:04:26.284Z,90.00
2023-04-30T19:05:24.581Z,45.00
2023-04-30T19:06:24.656Z,39.38
2023-04-30T19:07:25.547Z,33.75
2023-04-30T19:08:25.273Z,33.75
2023-04-30T19:09:24.556Z,33.75
2023-04-30T19:10:24.588Z,39.38
2023-04-30T19:11:24.544Z,33.75
2023-04-30T19:12:24.551Z,33.75
2023-04-30T19:13:24.517Z,28.12
2023-04-30T19:14:24.536Z,28.12
2023-04-30T19:15:24.522Z,22.50
2023-04-30T19:16:25.405Z,22.50
2023-04-30T19:17:24.483Z,16.88
2023-04-30T19:18:24.540Z,16.88
2023-04-30T19:19:24.427Z,16.88
2023-04-30T19:20:24.473Z,16.88
2023-04-30T19:21:25.972Z,22.50
2023-04-30T19:22:25.820Z,22.50
2023-04-30T19:23:24.390Z,22.50
2023-04-30T19:24:24.400Z,22.50
2023-04-30T19:25:24.390Z,22.50
2023-04-30T19:26:24.347Z,16.88
2023-04-30T19:27:25.598Z,16.88
2023-04-30T19:28:25.049Z,16.88
2023-04-30T19:29:24.336Z,22.50
2023-04-30T19:30:24.329Z,22.50
2023-04-30T19:31:24.372Z,22.50
2023-04-30T19:32:24.359Z,22.50
2023-04-30T19:33:24.621Z,22.50
2023-04-30T19:34:26.600Z,16.88
2023-04-30T19:35:24.278Z,16.88
2023-04-30T19:36:24.264Z,16.88
2023-04-30T19:37:24.997Z,22.50
2023-04-30T19:38:24.249Z,22.50
2023-04-30T19:39:25.181Z,22.50
2023-04-30T19:40:25.615Z,45.00
2023-04-30T19:41:24.235Z,45.00
2023-04-30T19:42:24.183Z,33.75
2023-04-30T19:43:24.215Z,33.75
2023-04-30T19:44:24.192Z,33.75
2023-04-30T19:45:24.198Z,28.12
2023-04-30T19:46:24.216Z,28.12
2023-04-30T19:47:24.176Z,22.50
2023-04-30T19:48:24.137Z,22.50
2023-04-30T19:49:26.057Z,22.50
2023-04-30T19:50:24.120Z,28.12
2023-04-30T19:51:25.082Z,22.50
2023-04-30T19:52:25.100Z,22.50
2023-04-30T19:53:27.207Z,22.50
2023-04-30T19:54:26.006Z,22.50
2023-04-30T19:55:24.570Z,22.50
2023-04-30T19:56:24.557Z,22.50
2023-04-30T19:57:25.083Z,16.88
2023-04-30T19:58:24.033Z,16.88
2023-04-30T19:59:24.028Z,11.25
2023-04-30T20:00:24.583Z,11.25
2023-04-30T20:01:24.715Z,16.88
2023-04-30T20:02:24.737Z,16.88
2023-04-30T20:03:24.087Z,16.88
2023-04-30T20:04:23.978Z,16.88
2023-04-30T20:05:24.012Z,22.50
2023-04-30T20:06:23.944Z,16.88
2023-04-30T20:07:23.944Z,16.88
2023-04-30T20:08:23.908Z,16.88
2023-04-30T20:09:23.932Z,16.88
2023-04-30T20:10:23.845Z,16.88
2023-04-30T20:11:23.894Z,11.25
2023-04-30T20:12:24.480Z,11.25
2023-04-30T20:13:23.894Z,11.25
2023-04-30T20:14:23.881Z,11.25
2023-04-30T20:15:24.628Z,11.25
2023-04-30T20:16:23.824Z,11.25
2023-04-30T20:17:23.823Z,11.25
2023-04-30T20:18:24.569Z,11.25
2023-04-30T20:19:23.791Z,5.62
2023-04-30T20:20:23.817Z,5.62
2023-04-30T20:21:24.104Z,5.62
2023-04-30T20:22:24.352Z,5.62
2023-04-30T20:23:23.749Z,5.62
2023-04-30T20:24:23.754Z,5.62
2023-04-30T20:25:23.704Z,5.62
2023-04-30T20:26:23.702Z,5.62
2023-04-30T20:27:24.637Z,5.62
2023-04-30T20:28:23.687Z,0.00
2023-04-30T20:29:28.300Z,0.00
2023-04-30T20:30:23.661Z,0.00
2023-04-30T20:31:23.697Z,0.00
2023-04-30T20:32:23.687Z,0.00
2023-04-30T20:33:23.898Z,0.00
2023-04-30T20:34:23.842Z,0.00
2023-04-30T20:35:23.618Z,0.00
2023-04-30T20:36:23.577Z,0.00
2023-04-30T20:37:23.624Z,0.00
2023-04-30T20:38:23.704Z,0.00
2023-04-30T20:39:23.580Z,0.00
2023-04-30T20:40:23.544Z,0.00
2023-04-30T20:41:23.552Z,0.00
2023-04-30T20:42:23.511Z,0.00
2023-04-30T20:43:23.533Z,0.00
2023-04-30T20:44:23.523Z,0.00
2023-04-30T20:45:24.083Z,0.00
2023-04-30T20:46:24.143Z,0.00
2023-04-30T20:47:23.486Z,0.00
2023-04-30T20:48:23.481Z,0.00
2023-04-30T20:49:23.459Z,0.00
2023-04-30T20:50:24.113Z,0.00
2023-04-30T20:51:23.488Z,0.00
2023-04-30T20:52:23.423Z,0.00
2023-04-30T20:53:23.428Z,0.00
2023-04-30T20:54:23.475Z,0.00
2023-04-30T20:55:23.393Z,0.00
2023-04-30T20:56:24.808Z,0.00
2023-04-30T20:57:23.384Z,0.00
2023-04-30T20:58:23.344Z,0.00
2023-04-30T20:59:23.376Z,0.00
2023-04-30T21:00:23.321Z,0.00
2023-04-30T21:01:24.141Z,0.00
2023-04-30T21:02:23.437Z,0.00
2023-04-30T21:03:23.629Z,0.00
2023-04-30T21:04:23.977Z,0.00
2023-04-30T21:05:24.024Z,0.00
2023-04-30T21:06:23.291Z,0.00
2023-04-30T21:07:23.262Z,0.00
2023-04-30T21:08:23.281Z,0.00
2023-04-30T21:09:23.240Z,0.00
2023-04-30T21:10:23.362Z,0.00
2023-04-30T21:11:23.245Z,0.00
2023-04-30T21:12:23.329Z,0.00
2023-04-30T21:13:27.099Z,0.00
2023-04-30T21:14:23.174Z,0.00
2023-04-30T21:15:23.187Z,0.00
2023-04-30T21:16:24.123Z,0.00
2023-04-30T21:17:24.118Z,0.00
2023-04-30T21:18:23.098Z,0.00
2023-04-30T21:19:23.160Z,0.00
2023-04-30T21:20:24.321Z,0.00
2023-04-30T21:21:23.096Z,0.00
2023-04-30T21:22:23.624Z,0.00
2023-04-30T21:23:23.795Z,0.00
2023-04-30T21:24:23.035Z,0.00
2023-04-30T21:25:23.097Z,0.00
2023-04-30T21:26:23.728Z,0.00
2023-04-30T21:27:23.037Z,0.00
2023-04-30T21:28:23.576Z,0.00
2023-04-30T21:29:23.035Z,0.00
2023-04-30T21:30:25.755Z,0.00
2023-04-30T21:31:23.072Z,0.00
2023-04-30T21:32:23.827Z,0.00
2023-04-30T21:33:22.987Z,0.00
2023-04-30T21:34:22.957Z,0.00
2023-04-30T21:35:24.133Z,0.00
2023-04-30T21:36:23.615Z,0.00
2023-04-30T21:37:23.640Z,0.00
2023-04-30T21:38:24.410Z,0.00
2023-04-30T21:39:22.924Z,0.00
2023-04-30T21:40:22.901Z,0.00
2023-04-30T21:41:23.568Z,0.00
2023-04-30T21:42:22.847Z,0.00
2023-04-30T21:43:22.863Z,0.00
2023-04-30T21:44:23.058Z,0.00
2023-04-30T21:45:23.620Z,0.00
2023-04-30T21:46:23.207Z,0.00
2023-04-30T21:47:22.849Z,0.00
2023-04-30T21:48:22.796Z,0.00
2023-04-30T21:49:25.509Z,0.00
2023-04-30T21:50:23.792Z,0.00
2023-04-30T21:51:22.783Z,0.00
2023-04-30T21:52:23.604Z,0.00
2023-04-30T21:53:22.777Z,0.00
2023-04-30T21:54:22.747Z,0.00
2023-04-30T21:55:22.750Z,0.00
2023-04-30T21:56:22.855Z,0.00
2023-04-30T21:57:22.724Z,0.00
2023-04-30T21:58:22.665Z,0.00
2023-04-30T21:59:22.714Z,0.00
2023-04-30T22:00:22.658Z,0.00
2023-04-30T22:01:24.812Z,0.00
2023-04-30T22:02:24.291Z,0.00
2023-04-30T22:03:22.751Z,0.00
2023-04-30T22:04:23.330Z,0.00
2023-04-30T22:05:23.287Z,0.00
2023-04-30T22:06:22.601Z,0.00
2023-04-30T22:07:22.605Z,0.00
2023-04-30T22:08:25.890Z,0.00
2023-04-30T22:09:22.597Z,0.00
2023-04-30T22:10:22.543Z,0.00
2023-04-30T22:11:22.549Z,0.00